sensor_id;sensor_type;location;lat;lon;timestamp;temperature;humidity
9544;DHT22;30418;51.45933468;7.33152330;2023-09-19T00:00:47;21.60;60.40
9544;DHT22;30418;51.45933468;7.33152330;2023-09-19T00:03:16;21.50;60.20
9544;DHT22;30418;51.45933468;7.33152330;2023-09-19T00:05:45;21.50;60.20
9544;DHT22;30418;51.45933468;7.33152330;2023-09-19T00:08:14;21.50;60.10
9544;DHT22;30418;51.45933468;7.33152330;2023-09-19T00:10:43;21.40;60.10
9544;DHT22;30418;51.45933468;7.33152330;2023-09-19T00:13:12;21.40;60.00
9544;DHT22;30418;51.45933468;7.33152330;2023-09-19T00:15:46;21.40;60.00
9544;DHT22;30418;51.45933468;7.33152330;2023-09-19T00:18:17;21.30;60.10
9544;DHT22;30418;51.45933468;7.33152330;2023-09-19T00:20:47;21.30;60.20
9544;DHT22;30418;51.45933468;7.33152330;2023-09-19T00:23:17;21.30;60.30
9544;DHT22;30418;51.45933468;7.33152330;2023-09-19T00:25:46;21.20;60.30
9544;DHT22;30418;51.45933468;7.33152330;2023-09-19T00:28:15;21.20;60.30
9544;DHT22;30418;51.45933468;7.33152330;2023-09-19T00:30:46;21.20;60.30
9544;DHT22;30418;51.45933468;7.33152330;2023-09-19T00:33:17;21.20;60.40
9544;DHT22;30418;51.45933468;7.33152330;2023-09-19T00:35:47;21.20;60.30
9544;DHT22;30418;51.45933468;7.33152330;2023-09-19T00:38:16;21.10;60.20
9544;DHT22;30418;51.45933468;7.33152330;2023-09-19T00:40:48;21.10;60.20
9544;DHT22;30418;51.45933468;7.33152330;2023-09-19T00:43:18;21.10;60.20
9544;DHT22;30418;51.45933468;7.33152330;2023-09-19T00:45:50;21.00;60.00
9544;DHT22;30418;51.45933468;7.33152330;2023-09-19T00:48:20;21.00;60.00
9544;DHT22;30418;51.45933468;7.33152330;2023-09-19T00:50:50;21.00;60.00
9544;DHT22;30418;51.45933468;7.33152330;2023-09-19T00:53:22;20.90;60.00
9544;DHT22;30418;51.45933468;7.33152330;2023-09-19T00:55:54;20.90;60.00
9544;DHT22;30418;51.45933468;7.33152330;2023-09-19T00:58:24;20.90;60.00
9544;DHT22;30418;51.45933468;7.33152330;2023-09-19T01:00:54;20.90;59.90
9544;DHT22;30418;51.45933468;7.33152330;2023-09-19T01:03:23;20.90;60.00
9544;DHT22;30418;51.45933468;7.33152330;2023-09-19T01:05:51;20.90;60.00
9544;DHT22;30418;51.45933468;7.33152330;2023-09-19T01:08:21;20.80;59.80
9544;DHT22;30418;51.45933468;7.33152330;2023-09-19T01:11:03;20.80;59.80
9544;DHT22;30418;51.45933468;7.33152330;2023-09-19T01:13:47;20.80;59.90
9544;DHT22;30418;51.45933468;7.33152330;2023-09-19T01:16:30;20.80;59.80
9544;DHT22;30418;51.45933468;7.33152330;2023-09-19T01:19:13;20.80;59.80
9544;DHT22;30418;51.45933468;7.33152330;2023-09-19T01:22:06;20.80;59.80
9544;DHT22;30418;51.45933468;7.33152330;2023-09-19T01:25:04;20.70;59.60
9544;DHT22;30418;51.45933468;7.33152330;2023-09-19T01:28:08;20.70;59.70
9544;DHT22;30418;51.45933468;7.33152330;2023-09-19T01:30:53;20.70;59.60
9544;DHT22;30418;51.45933468;7.33152330;2023-09-19T01:33:27;20.70;59.50
9544;DHT22;30418;51.45933468;7.33152330;2023-09-19T01:36:02;20.70;59.50
9544;DHT22;30418;51.45933468;7.33152330;2023-09-19T01:38:32;20.60;59.40
9544;DHT22;30418;51.45933468;7.33152330;2023-09-19T01:41:07;20.60;59.50
9544;DHT22;30418;51.45933468;7.33152330;2023-09-19T01:43:42;20.60;59.60
9544;DHT22;30418;51.45933468;7.33152330;2023-09-19T01:46:16;20.60;59.60
9544;DHT22;30418;51.45933468;7.33152330;2023-09-19T01:48:54;20.50;59.60
9544;DHT22;30418;51.45933468;7.33152330;2023-09-19T01:51:34;20.50;59.70
9544;DHT22;30418;51.45933468;7.33152330;2023-09-19T01:54:10;20.50;59.60
9544;DHT22;30418;51.45933468;7.33152330;2023-09-19T01:56:50;20.50;59.60
9544;DHT22;30418;51.45933468;7.33152330;2023-09-19T01:59:23;20.50;59.60
9544;DHT22;30418;51.45933468;7.33152330;2023-09-19T02:01:56;20.50;59.50
9544;DHT22;30418;51.45933468;7.33152330;2023-09-19T02:04:26;20.50;59.50
9544;DHT22;30418;51.45933468;7.33152330;2023-09-19T02:06:56;20.50;59.60
9544;DHT22;30418;51.45933468;7.33152330;2023-09-19T02:09:25;20.40;59.50
9544;DHT22;30418;51.45933468;7.33152330;2023-09-19T02:11:54;20.40;59.50
9544;DHT22;30418;51.45933468;7.33152330;2023-09-19T02:14:23;20.40;59.50
9544;DHT22;30418;51.45933468;7.33152330;2023-09-19T02:16:52;20.40;59.40
9544;DHT22;30418;51.45933468;7.33152330;2023-09-19T02:19:22;20.40;59.50
9544;DHT22;30418;51.45933468;7.33152330;2023-09-19T02:21:50;20.40;59.40
9544;DHT22;30418;51.45933468;7.33152330;2023-09-19T02:24:19;20.40;59.40
9544;DHT22;30418;51.45933468;7.33152330;2023-09-19T02:26:47;20.30;59.30
9544;DHT22;30418;51.45933468;7.33152330;2023-09-19T02:29:16;20.30;59.20
9544;DHT22;30418;51.45933468;7.33152330;2023-09-19T02:31:44;20.30;59.30
9544;DHT22;30418;51.45933468;7.33152330;2023-09-19T02:34:15;20.30;59.30
9544;DHT22;30418;51.45933468;7.33152330;2023-09-19T02:36:46;20.30;59.20
9544;DHT22;30418;51.45933468;7.33152330;2023-09-19T02:39:16;20.30;59.20
9544;DHT22;30418;51.45933468;7.33152330;2023-09-19T02:41:44;20.30;59.20
9544;DHT22;30418;51.45933468;7.33152330;2023-09-19T02:44:13;20.30;59.20
9544;DHT22;30418;51.45933468;7.33152330;2023-09-19T02:46:42;20.20;59.10
9544;DHT22;30418;51.45933468;7.33152330;2023-09-19T02:49:11;20.30;59.20
9544;DHT22;30418;51.45933468;7.33152330;2023-09-19T02:51:40;20.20;59.10
9544;DHT22;30418;51.45933468;7.33152330;2023-09-19T02:54:10;20.20;59.20
9544;DHT22;30418;51.45933468;7.33152330;2023-09-19T02:56:39;20.20;59.10
9544;DHT22;30418;51.45933468;7.33152330;2023-09-19T02:59:08;20.20;59.10
9544;DHT22;30418;51.45933468;7.33152330;2023-09-19T03:01:38;20.20;59.10
9544;DHT22;30418;51.45933468;7.33152330;2023-09-19T03:04:06;20.10;59.00
9544;DHT22;30418;51.45933468;7.33152330;2023-09-19T03:06:35;20.10;59.00
9544;DHT22;30418;51.45933468;7.33152330;2023-09-19T03:09:05;20.10;59.00
9544;DHT22;30418;51.45933468;7.33152330;2023-09-19T03:11:41;20.10;59.00
9544;DHT22;30418;51.45933468;7.33152330;2023-09-19T03:14:09;20.00;59.00
9544;DHT22;30418;51.45933468;7.33152330;2023-09-19T03:16:40;20.00;59.10
9544;DHT22;30418;51.45933468;7.33152330;2023-09-19T03:19:13;20.00;59.10
9544;DHT22;30418;51.45933468;7.33152330;2023-09-19T03:21:43;20.00;59.00
9544;DHT22;30418;51.45933468;7.33152330;2023-09-19T03:24:12;20.00;59.00
9544;DHT22;30418;51.45933468;7.33152330;2023-09-19T03:26:42;20.00;59.00
9544;DHT22;30418;51.45933468;7.33152330;2023-09-19T03:29:12;20.00;58.90
9544;DHT22;30418;51.45933468;7.33152330;2023-09-19T03:31:41;20.00;58.90
9544;DHT22;30418;51.45933468;7.33152330;2023-09-19T03:34:10;20.00;58.80
9544;DHT22;30418;51.45933468;7.33152330;2023-09-19T03:36:38;20.00;58.70
9544;DHT22;30418;51.45933468;7.33152330;2023-09-19T03:39:08;20.00;59.30
9544;DHT22;30418;51.45933468;7.33152330;2023-09-19T03:41:37;19.90;58.40
9544;DHT22;30418;51.45933468;7.33152330;2023-09-19T03:44:08;19.90;58.40
9544;DHT22;30418;51.45933468;7.33152330;2023-09-19T03:46:36;19.90;58.40
9544;DHT22;30418;51.45933468;7.33152330;2023-09-19T03:49:06;19.90;58.40
9544;DHT22;30418;51.45933468;7.33152330;2023-09-19T03:51:35;19.90;58.40
9544;DHT22;30418;51.45933468;7.33152330;2023-09-19T03:54:04;19.90;58.20
9544;DHT22;30418;51.45933468;7.33152330;2023-09-19T03:56:33;19.90;58.90
9544;DHT22;30418;51.45933468;7.33152330;2023-09-19T03:59:01;19.90;58.20
9544;DHT22;30418;51.45933468;7.33152330;2023-09-19T04:01:32;19.90;58.20
9544;DHT22;30418;51.45933468;7.33152330;2023-09-19T04:04:00;19.80;58.00
9544;DHT22;30418;51.45933468;7.33152330;2023-09-19T04:06:36;19.90;58.20
9544;DHT22;30418;51.45933468;7.33152330;2023-09-19T04:09:05;19.80;58.00
9544;DHT22;30418;51.45933468;7.33152330;2023-09-19T04:11:34;19.80;58.00
9544;DHT22;30418;51.45933468;7.33152330;2023-09-19T04:14:03;19.80;58.00
9544;DHT22;30418;51.45933468;7.33152330;2023-09-19T04:16:33;19.80;58.00
9544;DHT22;30418;51.45933468;7.33152330;2023-09-19T04:19:02;19.80;58.00
9544;DHT22;30418;51.45933468;7.33152330;2023-09-19T04:21:32;19.80;58.50
9544;DHT22;30418;51.45933468;7.33152330;2023-09-19T04:24:00;19.80;57.90
9544;DHT22;30418;51.45933468;7.33152330;2023-09-19T04:26:29;19.80;58.00
9544;DHT22;30418;51.45933468;7.33152330;2023-09-19T04:28:57;19.70;58.00
9544;DHT22;30418;51.45933468;7.33152330;2023-09-19T04:31:27;19.70;58.10
9544;DHT22;30418;51.45933468;7.33152330;2023-09-19T04:33:57;19.80;58.10
9544;DHT22;30418;51.45933468;7.33152330;2023-09-19T04:36:32;19.70;58.00
9544;DHT22;30418;51.45933468;7.33152330;2023-09-19T04:39:02;19.80;58.10
9544;DHT22;30418;51.45933468;7.33152330;2023-09-19T04:41:34;19.70;58.00
9544;DHT22;30418;51.45933468;7.33152330;2023-09-19T04:44:05;19.70;58.00
9544;DHT22;30418;51.45933468;7.33152330;2023-09-19T04:46:34;19.70;58.10
9544;DHT22;30418;51.45933468;7.33152330;2023-09-19T04:49:04;19.70;58.10
9544;DHT22;30418;51.45933468;7.33152330;2023-09-19T04:51:32;19.70;58.10
9544;DHT22;30418;51.45933468;7.33152330;2023-09-19T04:54:03;19.70;58.10
9544;DHT22;30418;51.45933468;7.33152330;2023-09-19T04:56:32;19.70;58.20
9544;DHT22;30418;51.45933468;7.33152330;2023-09-19T04:59:01;19.70;58.10
9544;DHT22;30418;51.45933468;7.33152330;2023-09-19T05:01:29;19.70;58.10
9544;DHT22;30418;51.45933468;7.33152330;2023-09-19T05:03:58;19.70;58.10
9544;DHT22;30418;51.45933468;7.33152330;2023-09-19T05:06:29;19.70;58.10
9544;DHT22;30418;51.45933468;7.33152330;2023-09-19T05:08:57;19.70;58.20
9544;DHT22;30418;51.45933468;7.33152330;2023-09-19T05:11:27;19.70;58.30
9544;DHT22;30418;51.45933468;7.33152330;2023-09-19T05:13:57;19.70;58.20
9544;DHT22;30418;51.45933468;7.33152330;2023-09-19T05:16:29;19.70;58.30
9544;DHT22;30418;51.45933468;7.33152330;2023-09-19T05:18:58;19.60;58.20
9544;DHT22;30418;51.45933468;7.33152330;2023-09-19T05:21:30;19.70;58.20
9544;DHT22;30418;51.45933468;7.33152330;2023-09-19T05:24:00;19.60;58.20
9544;DHT22;30418;51.45933468;7.33152330;2023-09-19T05:26:29;19.60;58.20
9544;DHT22;30418;51.45933468;7.33152330;2023-09-19T05:28:57;19.60;58.20
9544;DHT22;30418;51.45933468;7.33152330;2023-09-19T05:31:25;19.60;58.30
9544;DHT22;30418;51.45933468;7.33152330;2023-09-19T05:33:54;19.60;58.30
9544;DHT22;30418;51.45933468;7.33152330;2023-09-19T05:36:23;19.50;58.20
9544;DHT22;30418;51.45933468;7.33152330;2023-09-19T05:38:53;19.50;58.20
9544;DHT22;30418;51.45933468;7.33152330;2023-09-19T05:41:21;19.50;58.30
9544;DHT22;30418;51.45933468;7.33152330;2023-09-19T05:43:50;19.50;58.30
9544;DHT22;30418;51.45933468;7.33152330;2023-09-19T05:46:19;19.50;58.30
9544;DHT22;30418;51.45933468;7.33152330;2023-09-19T05:48:47;19.50;58.30
9544;DHT22;30418;51.45933468;7.33152330;2023-09-19T05:51:17;19.50;59.00
9544;DHT22;30418;51.45933468;7.33152330;2023-09-19T05:53:46;19.50;58.40
9544;DHT22;30418;51.45933468;7.33152330;2023-09-19T05:56:17;19.50;58.50
9544;DHT22;30418;51.45933468;7.33152330;2023-09-19T05:58:46;19.50;58.40
9544;DHT22;30418;51.45933468;7.33152330;2023-09-19T06:01:14;19.40;58.30
9544;DHT22;30418;51.45933468;7.33152330;2023-09-19T06:03:43;19.40;58.40
9544;DHT22;30418;51.45933468;7.33152330;2023-09-19T06:06:12;19.40;58.50
9544;DHT22;30418;51.45933468;7.33152330;2023-09-19T06:08:40;19.40;58.50
9544;DHT22;30418;51.45933468;7.33152330;2023-09-19T06:11:11;19.50;58.60
9544;DHT22;30418;51.45933468;7.33152330;2023-09-19T06:13:41;19.50;58.50
9544;DHT22;30418;51.45933468;7.33152330;2023-09-19T06:16:10;19.50;58.60
9544;DHT22;30418;51.45933468;7.33152330;2023-09-19T06:18:38;19.50;58.50
9544;DHT22;30418;51.45933468;7.33152330;2023-09-19T06:21:07;19.40;58.50
9544;DHT22;30418;51.45933468;7.33152330;2023-09-19T06:23:35;19.40;58.50
9544;DHT22;30418;51.45933468;7.33152330;2023-09-19T06:26:04;19.40;58.50
9544;DHT22;30418;51.45933468;7.33152330;2023-09-19T06:28:33;19.50;58.60
9544;DHT22;30418;51.45933468;7.33152330;2023-09-19T06:31:04;19.50;58.60
9544;DHT22;30418;51.45933468;7.33152330;2023-09-19T06:33:37;19.50;58.70
9544;DHT22;30418;51.45933468;7.33152330;2023-09-19T06:36:07;19.50;58.70
9544;DHT22;30418;51.45933468;7.33152330;2023-09-19T06:38:36;19.50;58.70
9544;DHT22;30418;51.45933468;7.33152330;2023-09-19T06:41:06;19.50;58.70
9544;DHT22;30418;51.45933468;7.33152330;2023-09-19T06:43:35;19.50;58.70
9544;DHT22;30418;51.45933468;7.33152330;2023-09-19T06:46:05;19.50;58.70
9544;DHT22;30418;51.45933468;7.33152330;2023-09-19T06:48:34;19.50;58.70
9544;DHT22;30418;51.45933468;7.33152330;2023-09-19T06:51:03;19.50;58.70
9544;DHT22;30418;51.45933468;7.33152330;2023-09-19T06:53:32;19.50;58.70
9544;DHT22;30418;51.45933468;7.33152330;2023-09-19T06:56:03;19.60;58.80
9544;DHT22;30418;51.45933468;7.33152330;2023-09-19T06:58:32;19.50;58.70
9544;DHT22;30418;51.45933468;7.33152330;2023-09-19T07:01:05;19.50;58.60
9544;DHT22;30418;51.45933468;7.33152330;2023-09-19T07:03:33;19.50;58.70
9544;DHT22;30418;51.45933468;7.33152330;2023-09-19T07:06:03;19.50;58.70
9544;DHT22;30418;51.45933468;7.33152330;2023-09-19T07:08:32;19.60;58.80
9544;DHT22;30418;51.45933468;7.33152330;2023-09-19T07:11:01;19.60;58.90
9544;DHT22;30418;51.45933468;7.33152330;2023-09-19T07:13:33;19.60;58.90
9544;DHT22;30418;51.45933468;7.33152330;2023-09-19T07:16:02;19.60;58.80
9544;DHT22;30418;51.45933468;7.33152330;2023-09-19T07:18:32;19.60;58.90
9544;DHT22;30418;51.45933468;7.33152330;2023-09-19T07:21:00;19.60;58.90
9544;DHT22;30418;51.45933468;7.33152330;2023-09-19T07:23:31;19.60;58.90
9544;DHT22;30418;51.45933468;7.33152330;2023-09-19T07:26:02;19.60;58.90
9544;DHT22;30418;51.45933468;7.33152330;2023-09-19T07:28:32;19.60;58.90
9544;DHT22;30418;51.45933468;7.33152330;2023-09-19T07:31:02;19.70;59.10
9544;DHT22;30418;51.45933468;7.33152330;2023-09-19T07:33:33;19.70;59.10
9544;DHT22;30418;51.45933468;7.33152330;2023-09-19T07:36:01;19.70;59.10
9544;DHT22;30418;51.45933468;7.33152330;2023-09-19T07:38:30;19.70;59.00
9544;DHT22;30418;51.45933468;7.33152330;2023-09-19T07:41:00;19.70;59.10
9544;DHT22;30418;51.45933468;7.33152330;2023-09-19T07:43:29;19.70;59.10
9544;DHT22;30418;51.45933468;7.33152330;2023-09-19T07:46:03;19.70;59.10
9544;DHT22;30418;51.45933468;7.33152330;2023-09-19T07:48:35;19.70;59.10
9544;DHT22;30418;51.45933468;7.33152330;2023-09-19T07:51:05;19.80;59.20
9544;DHT22;30418;51.45933468;7.33152330;2023-09-19T07:53:35;19.80;59.40
9544;DHT22;30418;51.45933468;7.33152330;2023-09-19T07:56:05;19.80;59.20
9544;DHT22;30418;51.45933468;7.33152330;2023-09-19T07:58:35;19.80;59.10
9544;DHT22;30418;51.45933468;7.33152330;2023-09-19T08:01:06;19.80;59.10
9544;DHT22;30418;51.45933468;7.33152330;2023-09-19T08:03:37;19.90;59.20
9544;DHT22;30418;51.45933468;7.33152330;2023-09-19T08:06:08;19.90;59.20
9544;DHT22;30418;51.45933468;7.33152330;2023-09-19T08:08:37;19.90;59.20
9544;DHT22;30418;51.45933468;7.33152330;2023-09-19T08:11:06;19.90;59.10
9544;DHT22;30418;51.45933468;7.33152330;2023-09-19T08:13:38;19.90;59.10
9544;DHT22;30418;51.45933468;7.33152330;2023-09-19T08:16:10;19.90;59.10
9544;DHT22;30418;51.45933468;7.33152330;2023-09-19T08:18:41;19.90;59.10
9544;DHT22;30418;51.45933468;7.33152330;2023-09-19T08:21:11;20.00;59.20
9544;DHT22;30418;51.45933468;7.33152330;2023-09-19T08:23:43;20.00;59.20
9544;DHT22;30418;51.45933468;7.33152330;2023-09-19T08:26:12;20.00;59.20
9544;DHT22;30418;51.45933468;7.33152330;2023-09-19T08:28:41;20.00;59.20
9544;DHT22;30418;51.45933468;7.33152330;2023-09-19T08:31:09;20.00;59.90
9544;DHT22;30418;51.45933468;7.33152330;2023-09-19T08:33:38;20.00;59.20
9544;DHT22;30418;51.45933468;7.33152330;2023-09-19T08:36:10;20.00;59.20
9544;DHT22;30418;51.45933468;7.33152330;2023-09-19T08:38:41;20.00;59.30
9544;DHT22;30418;51.45933468;7.33152330;2023-09-19T08:41:10;20.10;59.30
9544;DHT22;30418;51.45933468;7.33152330;2023-09-19T08:43:39;20.10;59.90
9544;DHT22;30418;51.45933468;7.33152330;2023-09-19T08:46:10;20.10;59.20
9544;DHT22;30418;51.45933468;7.33152330;2023-09-19T08:48:46;20.10;59.40
9544;DHT22;30418;51.45933468;7.33152330;2023-09-19T08:51:26;20.10;59.40
9544;DHT22;30418;51.45933468;7.33152330;2023-09-19T08:54:03;20.10;59.30
9544;DHT22;30418;51.45933468;7.33152330;2023-09-19T08:56:32;20.10;59.30
9544;DHT22;30418;51.45933468;7.33152330;2023-09-19T08:59:03;20.20;59.40
9544;DHT22;30418;51.45933468;7.33152330;2023-09-19T09:01:34;20.20;59.40
9544;DHT22;30418;51.45933468;7.33152330;2023-09-19T09:04:08;20.20;59.40
9544;DHT22;30418;51.45933468;7.33152330;2023-09-19T09:06:42;20.20;59.40
9544;DHT22;30418;51.45933468;7.33152330;2023-09-19T09:09:12;20.30;59.50
9544;DHT22;30418;51.45933468;7.33152330;2023-09-19T09:11:41;20.40;59.60
9544;DHT22;30418;51.45933468;7.33152330;2023-09-19T09:14:09;20.40;59.40
9544;DHT22;30418;51.45933468;7.33152330;2023-09-19T09:16:38;20.40;59.40
9544;DHT22;30418;51.45933468;7.33152330;2023-09-19T09:19:07;20.50;59.30
9544;DHT22;30418;51.45933468;7.33152330;2023-09-19T09:21:35;20.50;59.30
9544;DHT22;30418;51.45933468;7.33152330;2023-09-19T09:24:29;20.50;59.30
9544;DHT22;30418;51.45933468;7.33152330;2023-09-19T09:27:03;20.50;59.20
9544;DHT22;30418;51.45933468;7.33152330;2023-09-19T09:29:42;20.60;59.30
9544;DHT22;30418;51.45933468;7.33152330;2023-09-19T09:32:22;20.60;59.10
9544;DHT22;30418;51.45933468;7.33152330;2023-09-19T09:34:53;20.60;59.20
9544;DHT22;30418;51.45933468;7.33152330;2023-09-19T09:37:27;20.70;58.90
9544;DHT22;30418;51.45933468;7.33152330;2023-09-19T09:40:00;20.70;59.20
9544;DHT22;30418;51.45933468;7.33152330;2023-09-19T09:42:46;20.70;58.70
9544;DHT22;30418;51.45933468;7.33152330;2023-09-19T09:45:20;20.70;58.60
9544;DHT22;30418;51.45933468;7.33152330;2023-09-19T09:47:55;20.80;58.60
9544;DHT22;30418;51.45933468;7.33152330;2023-09-19T09:50:28;20.80;58.60
9544;DHT22;30418;51.45933468;7.33152330;2023-09-19T09:53:20;20.80;58.40
9544;DHT22;30418;51.45933468;7.33152330;2023-09-19T09:56:01;20.90;58.20
9544;DHT22;30418;51.45933468;7.33152330;2023-09-19T09:58:33;20.90;58.20
9544;DHT22;30418;51.45933468;7.33152330;2023-09-19T10:01:04;20.90;58.20
9544;DHT22;30418;51.45933468;7.33152330;2023-09-19T10:03:38;21.00;58.20
9544;DHT22;30418;51.45933468;7.33152330;2023-09-19T10:06:10;21.00;58.20
9544;DHT22;30418;51.45933468;7.33152330;2023-09-19T10:08:58;21.00;58.20
9544;DHT22;30418;51.45933468;7.33152330;2023-09-19T10:12:03;21.10;58.10
9544;DHT22;30418;51.45933468;7.33152330;2023-09-19T10:14:37;21.10;57.80
9544;DHT22;30418;51.45933468;7.33152330;2023-09-19T10:17:09;21.10;57.80
9544;DHT22;30418;51.45933468;7.33152330;2023-09-19T10:19:54;21.10;57.80
9544;DHT22;30418;51.45933468;7.33152330;2023-09-19T10:22:26;21.20;57.80
9544;DHT22;30418;51.45933468;7.33152330;2023-09-19T10:24:59;21.20;57.70
9544;DHT22;30418;51.45933468;7.33152330;2023-09-19T10:27:32;21.20;57.70
9544;DHT22;30418;51.45933468;7.33152330;2023-09-19T10:30:06;21.20;57.50
9544;DHT22;30418;51.45933468;7.33152330;2023-09-19T10:32:40;21.30;57.50
9544;DHT22;30418;51.45933468;7.33152330;2023-09-19T10:35:11;21.30;57.50
9544;DHT22;30418;51.45933468;7.33152330;2023-09-19T10:37:41;21.30;57.30
9544;DHT22;30418;51.45933468;7.33152330;2023-09-19T10:40:14;21.30;57.40
9544;DHT22;30418;51.45933468;7.33152330;2023-09-19T10:42:45;21.40;57.60
9544;DHT22;30418;51.45933468;7.33152330;2023-09-19T10:45:15;21.40;57.20
9544;DHT22;30418;51.45933468;7.33152330;2023-09-19T10:47:47;21.40;57.30
9544;DHT22;30418;51.45933468;7.33152330;2023-09-19T10:50:20;21.50;57.30
9544;DHT22;30418;51.45933468;7.33152330;2023-09-19T10:52:50;21.50;57.20
9544;DHT22;30418;51.45933468;7.33152330;2023-09-19T10:55:25;21.60;57.40
9544;DHT22;30418;51.45933468;7.33152330;2023-09-19T10:57:59;21.70;57.50
9544;DHT22;30418;51.45933468;7.33152330;2023-09-19T11:00:30;21.70;57.10
9544;DHT22;30418;51.45933468;7.33152330;2023-09-19T11:03:17;21.80;57.00
9544;DHT22;30418;51.45933468;7.33152330;2023-09-19T11:06:05;21.80;56.50
9544;DHT22;30418;51.45933468;7.33152330;2023-09-19T11:08:57;21.90;56.60
9544;DHT22;30418;51.45933468;7.33152330;2023-09-19T11:11:45;22.00;56.40
9544;DHT22;30418;51.45933468;7.33152330;2023-09-19T11:14:41;22.00;56.70
9544;DHT22;30418;51.45933468;7.33152330;2023-09-19T11:17:31;22.00;55.90
9544;DHT22;30418;51.45933468;7.33152330;2023-09-19T11:20:20;22.00;55.80
9544;DHT22;30418;51.45933468;7.33152330;2023-09-19T11:23:21;22.00;55.50
9544;DHT22;30418;51.45933468;7.33152330;2023-09-19T11:25:53;22.00;55.50
9544;DHT22;30418;51.45933468;7.33152330;2023-09-19T11:28:35;22.10;55.60
9544;DHT22;30418;51.45933468;7.33152330;2023-09-19T11:34:46;22.10;55.00
9544;DHT22;30418;51.45933468;7.33152330;2023-09-19T11:40:38;22.10;55.20
9544;DHT22;30418;51.45933468;7.33152330;2023-09-19T11:43:30;22.10;55.40
9544;DHT22;30418;51.45933468;7.33152330;2023-09-19T11:46:07;22.10;55.10
9544;DHT22;30418;51.45933468;7.33152330;2023-09-19T11:48:38;22.10;55.10
9544;DHT22;30418;51.45933468;7.33152330;2023-09-19T11:51:16;22.10;55.10
9544;DHT22;30418;51.45933468;7.33152330;2023-09-19T11:53:55;22.10;55.10
9544;DHT22;30418;51.45933468;7.33152330;2023-09-19T11:56:27;22.20;55.30
9544;DHT22;30418;51.45933468;7.33152330;2023-09-19T11:58:56;22.20;55.40
9544;DHT22;30418;51.45933468;7.33152330;2023-09-19T12:01:30;22.20;55.20
9544;DHT22;30418;51.45933468;7.33152330;2023-09-19T12:04:03;22.20;55.10
9544;DHT22;30418;51.45933468;7.33152330;2023-09-19T12:06:32;22.20;55.10
9544;DHT22;30418;51.45933468;7.33152330;2023-09-19T12:09:03;22.20;54.90
9544;DHT22;30418;51.45933468;7.33152330;2023-09-19T12:11:41;22.30;54.70
9544;DHT22;30418;51.45933468;7.33152330;2023-09-19T12:14:11;22.30;54.50
9544;DHT22;30418;51.45933468;7.33152330;2023-09-19T12:16:53;22.20;54.60
9544;DHT22;30418;51.45933468;7.33152330;2023-09-19T12:19:24;22.30;54.70
9544;DHT22;30418;51.45933468;7.33152330;2023-09-19T12:21:55;22.30;54.70
9544;DHT22;30418;51.45933468;7.33152330;2023-09-19T12:24:31;22.30;54.50
9544;DHT22;30418;51.45933468;7.33152330;2023-09-19T12:27:04;22.30;54.40
9544;DHT22;30418;51.45933468;7.33152330;2023-09-19T12:29:43;22.30;54.30
9544;DHT22;30418;51.45933468;7.33152330;2023-09-19T12:32:12;22.40;54.10
9544;DHT22;30418;51.45933468;7.33152330;2023-09-19T12:34:52;22.30;54.30
9544;DHT22;30418;51.45933468;7.33152330;2023-09-19T12:37:22;22.40;53.90
9544;DHT22;30418;51.45933468;7.33152330;2023-09-19T12:40:04;22.40;54.10
9544;DHT22;30418;51.45933468;7.33152330;2023-09-19T12:42:43;22.40;53.70
9544;DHT22;30418;51.45933468;7.33152330;2023-09-19T12:45:12;22.50;54.10
9544;DHT22;30418;51.45933468;7.33152330;2023-09-19T12:51:05;22.50;53.30
9544;DHT22;30418;51.45933468;7.33152330;2023-09-19T12:53:37;22.60;53.30
9544;DHT22;30418;51.45933468;7.33152330;2023-09-19T12:56:11;22.70;53.50
9544;DHT22;30418;51.45933468;7.33152330;2023-09-19T12:58:52;22.70;53.30
9544;DHT22;30418;51.45933468;7.33152330;2023-09-19T13:01:22;22.70;52.90
9544;DHT22;30418;51.45933468;7.33152330;2023-09-19T13:04:15;22.80;53.20
9544;DHT22;30418;51.45933468;7.33152330;2023-09-19T13:06:49;22.80;52.50
9544;DHT22;30418;51.45933468;7.33152330;2023-09-19T13:09:20;22.90;52.90
9544;DHT22;30418;51.45933468;7.33152330;2023-09-19T13:11:49;22.90;52.90
9544;DHT22;30418;51.45933468;7.33152330;2023-09-19T13:14:19;23.00;52.40
9544;DHT22;30418;51.45933468;7.33152330;2023-09-19T13:16:58;23.00;52.20
9544;DHT22;30418;51.45933468;7.33152330;2023-09-19T13:19:39;23.00;51.90
9544;DHT22;30418;51.45933468;7.33152330;2023-09-19T13:22:37;23.00;51.80
9544;DHT22;30418;51.45933468;7.33152330;2023-09-19T13:25:08;23.10;51.50
9544;DHT22;30418;51.45933468;7.33152330;2023-09-19T13:27:42;23.10;51.80
9544;DHT22;30418;51.45933468;7.33152330;2023-09-19T13:30:12;23.10;52.50
9544;DHT22;30418;51.45933468;7.33152330;2023-09-19T13:32:41;23.10;51.70
9544;DHT22;30418;51.45933468;7.33152330;2023-09-19T13:35:11;23.10;51.70
9544;DHT22;30418;51.45933468;7.33152330;2023-09-19T13:37:42;23.20;51.60
9544;DHT22;30418;51.45933468;7.33152330;2023-09-19T13:40:14;23.20;51.10
9544;DHT22;30418;51.45933468;7.33152330;2023-09-19T13:42:43;23.20;51.20
9544;DHT22;30418;51.45933468;7.33152330;2023-09-19T13:45:12;23.20;51.40
9544;DHT22;30418;51.45933468;7.33152330;2023-09-19T13:47:44;23.30;51.50
9544;DHT22;30418;51.45933468;7.33152330;2023-09-19T13:50:13;23.20;51.20
9544;DHT22;30418;51.45933468;7.33152330;2023-09-19T13:52:43;23.30;51.30
9544;DHT22;30418;51.45933468;7.33152330;2023-09-19T13:55:11;23.30;51.10
9544;DHT22;30418;51.45933468;7.33152330;2023-09-19T13:57:42;23.30;51.40
9544;DHT22;30418;51.45933468;7.33152330;2023-09-19T14:00:12;23.30;51.20
9544;DHT22;30418;51.45933468;7.33152330;2023-09-19T14:02:43;23.40;51.50
9544;DHT22;30418;51.45933468;7.33152330;2023-09-19T14:05:13;23.40;51.60
9544;DHT22;30418;51.45933468;7.33152330;2023-09-19T14:07:45;23.40;51.30
9544;DHT22;30418;51.45933468;7.33152330;2023-09-19T14:10:13;23.50;51.20
9544;DHT22;30418;51.45933468;7.33152330;2023-09-19T14:12:44;23.50;50.90